Masuhozan Maru — JD3292 — position and weather

sailwx.info

Track history (hours):
 
Tides and Currents Weather Stations Pressure Air Temp Water Temp Dewpoint Dewpoint Depression Visibility Wind Speed Wind Dir Waves Ship Positions

Masuhozan Maru

Last reported at 2017-Oct-18 09:20 UTC. Time now 2017-Oct-18 20:28 UTC.
Position N 34°36' E 134°54'.

Length 76 m; draft 4.5 m.

Type: Cargo ship. MMSI: 431003159.

Date/timePositionNaut miles runAvg speedWind from/ knotsBaromVisibWave heightAir tempDewpointWater temp
2017-Oct-18 09:20N 34°36' E 134°54'814.5
2017-Oct-18 08:47N 34°36' E 135°04'413.2
2017-Oct-18 08:30N 34°37' E 135°08'612.0
2017-Oct-18 08:00N 34°39' E 135°15'1 1.7
2017-Oct-18 07:30N 34°40' E 135°14'0 0.0
2017-Oct-18 07:00N 34°40' E 135°14'0 0.0
2017-Oct-18 06:30N 34°40' E 135°14'0 0.0
2017-Oct-18 06:00N 34°40' E 135°14'0 0.5
2017-Oct-18 05:30N 34°39' E 135°15'1 2.7
2017-Oct-18 05:00N 34°41' E 135°16'1 2.0
2017-Oct-18 04:30N 34°41' E 135°17'4 7.3
2017-Oct-18 04:00N 34°38' E 135°15'612.5
2017-Oct-18 03:30N 34°35' E 135°07'11 0.2
2017-Oct-16 02:09N 34°37' E 134°54'211.3
2017-Oct-16 01:57N 34°37' E 134°57'510.1
2017-Oct-16 01:27N 34°36' E 135°03'612.3
2017-Oct-16 01:00N 34°37' E 135°10'510.7
2017-Oct-16 00:31N 34°40' E 135°15'1 2.9
2017-Oct-15 23:59N 34°41' E 135°17'0 0.0
2017-Oct-15 23:30N 34°41' E 135°17'1 1.8
2017-Oct-15 23:00N 34°41' E 135°16'3 5.9
2017-Oct-15 22:30N 34°41' E 135°12'0 0.0
2017-Oct-15 22:00N 34°41' E 135°12'0 0.0
2017-Oct-15 21:31N 34°41' E 135°12'0 0.0
2017-Oct-15 21:01N 34°41' E 135°12'0 0.0
2017-Oct-15 20:31N 34°41' E 135°12'0 0.0
2017-Oct-15 20:01N 34°41' E 135°12'0 0.0
2017-Oct-15 19:30N 34°41' E 135°12'0 0.0
2017-Oct-15 19:01N 34°41' E 135°12'0 0.0
2017-Oct-15 18:30N 34°41' E 135°12'0 0.0
2017-Oct-15 18:00N 34°41' E 135°12'0 0.0
2017-Oct-15 17:30N 34°41' E 135°12'0 0.0
2017-Oct-15 17:01N 34°41' E 135°12'0 0.0
2017-Oct-15 16:30N 34°41' E 135°12'0 0.0
2017-Oct-15 16:01N 34°41' E 135°12'0 0.0
2017-Oct-15 15:31N 34°41' E 135°12'0 0.0
2017-Oct-15 15:01N 34°41' E 135°12'0 0.0
2017-Oct-15 14:00N 34°41' E 135°12'0 0.0
2017-Oct-15 13:31N 34°41' E 135°12'0 0.0
2017-Oct-15 13:00N 34°41' E 135°12'0 0.0
2017-Oct-15 12:30N 34°41' E 135°12'0 0.0
2017-Oct-15 12:00N 34°41' E 135°12'0 0.0
2017-Oct-15 11:31N 34°41' E 135°12'0 0.0
2017-Oct-15 11:01N 34°41' E 135°12'0 0.0
2017-Oct-15 10:30N 34°41' E 135°12'0 0.0
2017-Oct-15 10:00N 34°41' E 135°12'0 0.0
2017-Oct-15 09:31N 34°41' E 135°12'0 0.0
2017-Oct-15 09:00N 34°41' E 135°12'0 0.0
2017-Oct-15 08:31N 34°41' E 135°12'0 0.0
2017-Oct-15 08:00N 34°41' E 135°12'0 0.0
2017-Oct-15 07:31N 34°41' E 135°12'0 0.0
2017-Oct-15 07:00N 34°41' E 135°12'0 0.0
2017-Oct-15 06:30N 34°41' E 135°12'0 0.0
2017-Oct-15 06:01N 34°41' E 135°12'0 0.0
2017-Oct-15 05:30N 34°41' E 135°12'0 0.0
2017-Oct-15 05:00N 34°41' E 135°12'0 0.0
2017-Oct-15 04:31N 34°41' E 135°12'0 0.0
2017-Oct-15 04:01N 34°41' E 135°12'0 0.0
2017-Oct-15 03:31N 34°41' E 135°12'0 0.0
2017-Oct-15 03:00N 34°41' E 135°12'0 0.0
2017-Oct-15 02:30N 34°41' E 135°12'0 0.0
2017-Oct-15 02:01N 34°41' E 135°12'0 0.0
2017-Oct-15 01:31N 34°41' E 135°12'0 0.0
2017-Oct-15 01:01N 34°41' E 135°12'1 1.0
2017-Oct-15 00:30N 34°41' E 135°13'0 0.0
2017-Oct-15 00:01N 34°41' E 135°13'0 0.0
2017-Oct-14 23:30N 34°41' E 135°13'3 5.4
2017-Oct-14 23:00N 34°39' E 135°15'1 1.7
2017-Oct-14 22:30N 34°39' E 135°15'0 0.0
2017-Oct-14 22:01N 34°39' E 135°15'0 0.0
2017-Oct-14 21:30N 34°39' E 135°15'0 0.0
2017-Oct-14 21:00N 34°39' E 135°15'0 0.1
2017-Oct-14 20:31N 34°39' E 135°15'0 0.1
2017-Oct-14 20:01N 34°39' E 135°15'0 0.0
2017-Oct-14 19:31N 34°39' E 135°15'0 0.0
2017-Oct-14 19:01N 34°39' E 135°15'0 0.0
2017-Oct-14 18:30N 34°39' E 135°15'0 0.1
2017-Oct-14 18:01N 34°39' E 135°15'0 0.0
2017-Oct-14 17:30N 34°39' E 135°15'0 0.1
2017-Oct-14 17:00N 34°39' E 135°15'0 0.0
2017-Oct-14 16:31N 34°39' E 135°15'0 0.0
2017-Oct-14 16:00N 34°39' E 135°15'0 0.1
2017-Oct-14 15:30N 34°39' E 135°15'0 0.0
2017-Oct-14 15:01N 34°39' E 135°15'0 0.0
2017-Oct-14 14:31N 34°39' E 135°15'0 0.1
2017-Oct-14 14:01N 34°39' E 135°15'2 3.8
2017-Oct-14 13:31N 34°37' E 135°13'713.1
2017-Oct-14 13:01N 34°35' E 135°06'  
2017-Oct-12 04:17N 34°38' E 134°59'515.3
2017-Oct-12 03:57N 34°36' E 135°05'613.3
2017-Oct-12 03:30N 34°37' E 135°12'510.0
2017-Oct-12 03:00N 34°41' E 135°17'0 0.2
2017-Oct-12 02:30N 34°41' E 135°17'0 0.5
2017-Oct-12 02:00N 34°41' E 135°16'0 0.3
2017-Oct-12 01:30N 34°41' E 135°16'0 0.0
2017-Oct-12 01:00N 34°41' E 135°16'1 2.6
2017-Oct-12 00:29N 34°40' E 135°15'1 1.3
2017-Oct-12 00:00N 34°39' E 135°15'0 0.9
2017-Oct-11 23:30N 34°39' E 135°15'0 0.1
2017-Oct-11 23:00N 34°39' E 135°15'0 0.0
2017-Oct-11 22:30N 34°39' E 135°15'0 0.1
2017-Oct-11 22:00N 34°39' E 135°15'0 0.1
2017-Oct-11 21:30N 34°39' E 135°15'0 0.0
2017-Oct-11 21:00N 34°39' E 135°15'0 0.0
2017-Oct-11 20:30N 34°39' E 135°15'0 0.0
2017-Oct-11 20:00N 34°39' E 135°15'0 0.0
2017-Oct-11 19:30N 34°39' E 135°15'0 0.0
2017-Oct-11 19:00N 34°39' E 135°15'0 0.0
2017-Oct-11 18:30N 34°39' E 135°15'0 0.0
2017-Oct-11 17:59N 34°39' E 135°15'0 0.1
2017-Oct-11 17:30N 34°39' E 135°15'1 2.6
2017-Oct-11 17:00N 34°38' E 135°14'2 0.1
2017-Oct-11 00:00N 34°40' E 135°15'3 7.0
2017-Oct-10 23:30N 34°38' E 135°11'2 4.8
2017-Oct-10 23:00N 34°40' E 135°11'0 0.0
2017-Oct-10 22:30N 34°40' E 135°11'0 0.0
2017-Oct-10 22:00N 34°40' E 135°11'0 0.0
2017-Oct-10 21:30N 34°40' E 135°11'0 0.0
2017-Oct-10 21:00N 34°40' E 135°11'0 0.0
2017-Oct-10 20:30N 34°40' E 135°11'0 0.0
2017-Oct-10 20:00N 34°40' E 135°11'0 0.0
2017-Oct-10 19:30N 34°40' E 135°11'0 0.0
2017-Oct-10 19:00N 34°40' E 135°11'0 0.0
2017-Oct-10 18:30N 34°40' E 135°11'0 0.0
2017-Oct-10 18:00N 34°40' E 135°11'0 0.0
2017-Oct-10 17:30N 34°40' E 135°11'0 0.0
2017-Oct-10 17:00N 34°40' E 135°11'0 0.0
2017-Oct-10 16:30N 34°40' E 135°11'0 0.0
2017-Oct-10 16:00N 34°40' E 135°11'0 0.0
2017-Oct-10 15:30N 34°40' E 135°11'0 0.0
2017-Oct-10 15:00N 34°40' E 135°11'0 0.0
2017-Oct-10 14:00N 34°40' E 135°11'0 0.0
2017-Oct-10 13:30N 34°40' E 135°11'0 0.0
2017-Oct-10 13:00N 34°40' E 135°11'0 0.0
2017-Oct-10 12:30N 34°40' E 135°11'0 0.0
2017-Oct-10 12:00N 34°40' E 135°11'0 0.0
2017-Oct-10 11:30N 34°40' E 135°11'0 0.0
2017-Oct-10 11:00N 34°40' E 135°11'0 0.0
2017-Oct-10 10:30N 34°40' E 135°11'0 0.0
2017-Oct-10 10:00N 34°40' E 135°11'0 0.0
2017-Oct-10 09:30N 34°40' E 135°11'0 0.0
2017-Oct-10 09:00N 34°40' E 135°11'0 0.0
2017-Oct-10 08:30N 34°40' E 135°11'0 0.0
2017-Oct-10 08:00N 34°40' E 135°11'0 0.0
2017-Oct-10 07:30N 34°40' E 135°11'0 0.0
2017-Oct-10 07:00N 34°40' E 135°11'0 0.0
2017-Oct-10 06:30N 34°40' E 135°11'0 0.0
2017-Oct-10 06:00N 34°40' E 135°11'0 0.0
2017-Oct-10 05:30N 34°40' E 135°11'0 0.0
2017-Oct-10 05:00N 34°40' E 135°11'0 0.0
2017-Oct-10 04:30N 34°40' E 135°11'0 0.0
2017-Oct-10 04:00N 34°40' E 135°11'0 0.0
2017-Oct-10 03:30N 34°40' E 135°11'0 0.0
2017-Oct-10 03:00N 34°40' E 135°11'0 0.0
2017-Oct-10 02:30N 34°40' E 135°11'0 0.0
2017-Oct-10 02:00N 34°40' E 135°11'0 0.0
2017-Oct-10 01:30N 34°40' E 135°11'0 0.0
2017-Oct-10 01:00N 34°40' E 135°11'0 0.0
2017-Oct-10 00:30N 34°40' E 135°11'0 0.0
2017-Oct-10 00:00N 34°40' E 135°11'0 0.0
2017-Oct-09 23:30N 34°40' E 135°11'0 0.0
2017-Oct-09 23:00N 34°40' E 135°11'0 0.0
2017-Oct-09 22:30N 34°40' E 135°11'0 0.0
2017-Oct-09 22:00N 34°40' E 135°11'0 0.0
2017-Oct-09 21:30N 34°40' E 135°11'0 0.0
2017-Oct-09 21:00N 34°40' E 135°11'0 0.0
2017-Oct-09 20:30N 34°40' E 135°11'0 0.0
2017-Oct-09 20:00N 34°40' E 135°11'0 0.0
2017-Oct-09 19:30N 34°40' E 135°11'0 0.0
2017-Oct-09 19:00N 34°40' E 135°11'0 0.0
2017-Oct-09 18:30N 34°40' E 135°11'0 0.0
2017-Oct-09 18:00N 34°40' E 135°11'0 0.0
2017-Oct-09 17:30N 34°40' E 135°11'0 0.0
2017-Oct-09 17:00N 34°40' E 135°11'0 0.0
2017-Oct-09 16:30N 34°40' E 135°11'0 0.0
2017-Oct-09 16:00N 34°40' E 135°11'0 0.0
2017-Oct-09 15:30N 34°40' E 135°11'0 0.0
2017-Oct-09 15:00N 34°40' E 135°11'0 0.0
2017-Oct-09 14:30N 34°40' E 135°11'0 0.0
2017-Oct-09 14:00N 34°40' E 135°11'0 0.0
2017-Oct-09 13:30N 34°40' E 135°11'0 0.0
2017-Oct-09 13:00N 34°40' E 135°11'0 0.0
2017-Oct-09 12:30N 34°40' E 135°11'0 0.0
2017-Oct-09 12:00N 34°40' E 135°11'0 0.0
2017-Oct-09 11:30N 34°40' E 135°11'0 0.0
2017-Oct-09 11:00N 34°40' E 135°11'0 0.0
2017-Oct-09 10:30N 34°40' E 135°11'0 0.0
2017-Oct-09 10:00N 34°40' E 135°11'0 0.0
2017-Oct-09 09:30N 34°40' E 135°11'0 0.0
2017-Oct-09 09:00N 34°40' E 135°11'0 0.0
2017-Oct-09 08:30N 34°40' E 135°11'0 0.0
2017-Oct-09 08:00N 34°40' E 135°11'0 0.0
2017-Oct-09 07:30N 34°40' E 135°11'0 0.0
2017-Oct-09 07:00N 34°40' E 135°11'0 0.0
2017-Oct-09 06:30N 34°40' E 135°11'0 0.0
2017-Oct-09 06:00N 34°40' E 135°11'0 0.0
2017-Oct-09 05:30N 34°40' E 135°11'0 0.0
2017-Oct-09 05:00N 34°40' E 135°11'0 0.0
2017-Oct-09 04:30N 34°40' E 135°11'0 0.0
2017-Oct-09 04:00N 34°40' E 135°11'0 0.0
2017-Oct-09 03:30N 34°40' E 135°11'0 0.0
2017-Oct-09 03:00N 34°40' E 135°11'0 0.0
2017-Oct-09 02:30N 34°40' E 135°11'0 0.0
2017-Oct-09 02:00N 34°40' E 135°11'0 0.0
2017-Oct-09 01:30N 34°40' E 135°11'0 0.0
2017-Oct-09 01:00N 34°40' E 135°11'0 0.0
2017-Oct-09 00:30N 34°40' E 135°11'0 0.0
2017-Oct-09 00:00N 34°40' E 135°11'0 0.0
2017-Oct-08 23:30N 34°40' E 135°11'0 0.0
2017-Oct-08 23:00N 34°40' E 135°11'0 0.0
2017-Oct-08 22:30N 34°40' E 135°11'0 0.0
2017-Oct-08 22:00N 34°40' E 135°11'0 0.0
2017-Oct-08 21:30N 34°40' E 135°11'0 0.0
2017-Oct-08 21:00N 34°40' E 135°11'0 0.0
2017-Oct-08 20:30N 34°40' E 135°11'0 0.0
2017-Oct-08 20:00N 34°40' E 135°11'0 0.0
2017-Oct-08 19:30N 34°40' E 135°11'0 0.0
2017-Oct-08 19:00N 34°40' E 135°11'0 0.0
2017-Oct-08 18:30N 34°40' E 135°11'0 0.0
2017-Oct-08 18:00N 34°40' E 135°11'0 0.0
2017-Oct-08 17:30N 34°40' E 135°11'0 0.0
2017-Oct-08 17:00N 34°40' E 135°11'0 0.0
2017-Oct-08 16:30N 34°40' E 135°11'0 0.0
2017-Oct-08 16:00N 34°40' E 135°11'0 0.0
2017-Oct-08 15:30N 34°40' E 135°11'0 0.0
2017-Oct-08 15:00N 34°40' E 135°11'0 0.0
2017-Oct-08 14:30N 34°40' E 135°11'0 0.0
2017-Oct-08 14:00N 34°40' E 135°11'0 0.0
2017-Oct-08 13:30N 34°40' E 135°11'0 0.0
2017-Oct-08 13:00N 34°40' E 135°11'0 0.0
2017-Oct-08 12:30N 34°40' E 135°11'0 0.0
2017-Oct-08 12:00N 34°40' E 135°11'0 0.0
2017-Oct-08 11:30N 34°40' E 135°11'0 0.0
2017-Oct-08 11:00N 34°40' E 135°11'0 0.0
2017-Oct-08 10:30N 34°40' E 135°11'0 0.0
2017-Oct-08 10:00N 34°40' E 135°11'0 0.0
2017-Oct-08 09:30N 34°40' E 135°11'  
Track history (hours):
 
Tides and Currents Weather Stations Pressure Air Temp Water Temp Dewpoint Dewpoint Depression Visibility Wind Speed Wind Dir Waves Ship Positions

Masuhozan Maru

Last reported at 2017-Oct-18 09:20 UTC. Time now 2017-Oct-18 20:28 UTC.
Position N 34°36' E 134°54'.

Length 76 m; draft 4.5 m.

Type: Cargo ship. MMSI: 431003159.

Date/timePositionNaut miles runAvg speedWind from/ knotsBaromVisibWave heightAir tempDewpointWater temp
2017-Oct-18 09:20N 34°36' E 134°54'814.5
2017-Oct-18 08:47N 34°36' E 135°04'413.2
2017-Oct-18 08:30N 34°37' E 135°08'612.0
2017-Oct-18 08:00N 34°39' E 135°15'1 1.7
2017-Oct-18 07:30N 34°40' E 135°14'0 0.0
2017-Oct-18 07:00N 34°40' E 135°14'0 0.0
2017-Oct-18 06:30N 34°40' E 135°14'0 0.0
2017-Oct-18 06:00N 34°40' E 135°14'0 0.5
2017-Oct-18 05:30N 34°39' E 135°15'1 2.7
2017-Oct-18 05:00N 34°41' E 135°16'1 2.0
2017-Oct-18 04:30N 34°41' E 135°17'4 7.3
2017-Oct-18 04:00N 34°38' E 135°15'612.5
2017-Oct-18 03:30N 34°35' E 135°07'11 0.2
2017-Oct-16 02:09N 34°37' E 134°54'211.3
2017-Oct-16 01:57N 34°37' E 134°57'510.1
2017-Oct-16 01:27N 34°36' E 135°03'612.3
2017-Oct-16 01:00N 34°37' E 135°10'510.7
2017-Oct-16 00:31N 34°40' E 135°15'1 2.9
2017-Oct-15 23:59N 34°41' E 135°17'0 0.0
2017-Oct-15 23:30N 34°41' E 135°17'1 1.8
2017-Oct-15 23:00N 34°41' E 135°16'3 5.9
2017-Oct-15 22:30N 34°41' E 135°12'0 0.0
2017-Oct-15 22:00N 34°41' E 135°12'0 0.0
2017-Oct-15 21:31N 34°41' E 135°12'0 0.0
2017-Oct-15 21:01N 34°41' E 135°12'0 0.0
2017-Oct-15 20:31N 34°41' E 135°12'0 0.0
2017-Oct-15 20:01N 34°41' E 135°12'0 0.0
2017-Oct-15 19:30N 34°41' E 135°12'0 0.0
2017-Oct-15 19:01N 34°41' E 135°12'0 0.0
2017-Oct-15 18:30N 34°41' E 135°12'0 0.0
2017-Oct-15 18:00N 34°41' E 135°12'0 0.0
2017-Oct-15 17:30N 34°41' E 135°12'0 0.0
2017-Oct-15 17:01N 34°41' E 135°12'0 0.0
2017-Oct-15 16:30N 34°41' E 135°12'0 0.0
2017-Oct-15 16:01N 34°41' E 135°12'0 0.0
2017-Oct-15 15:31N 34°41' E 135°12'0 0.0
2017-Oct-15 15:01N 34°41' E 135°12'0 0.0
2017-Oct-15 14:00N 34°41' E 135°12'0 0.0
2017-Oct-15 13:31N 34°41' E 135°12'0 0.0
2017-Oct-15 13:00N 34°41' E 135°12'0 0.0
2017-Oct-15 12:30N 34°41' E 135°12'0 0.0
2017-Oct-15 12:00N 34°41' E 135°12'0 0.0
2017-Oct-15 11:31N 34°41' E 135°12'0 0.0
2017-Oct-15 11:01N 34°41' E 135°12'0 0.0
2017-Oct-15 10:30N 34°41' E 135°12'0 0.0
2017-Oct-15 10:00N 34°41' E 135°12'0 0.0
2017-Oct-15 09:31N 34°41' E 135°12'0 0.0
2017-Oct-15 09:00N 34°41' E 135°12'0 0.0
2017-Oct-15 08:31N 34°41' E 135°12'0 0.0
2017-Oct-15 08:00N 34°41' E 135°12'0 0.0
2017-Oct-15 07:31N 34°41' E 135°12'0 0.0
2017-Oct-15 07:00N 34°41' E 135°12'0 0.0
2017-Oct-15 06:30N 34°41' E 135°12'0 0.0
2017-Oct-15 06:01N 34°41' E 135°12'0 0.0
2017-Oct-15 05:30N 34°41' E 135°12'0 0.0
2017-Oct-15 05:00N 34°41' E 135°12'0 0.0
2017-Oct-15 04:31N 34°41' E 135°12'0 0.0
2017-Oct-15 04:01N 34°41' E 135°12'0 0.0
2017-Oct-15 03:31N 34°41' E 135°12'0 0.0
2017-Oct-15 03:00N 34°41' E 135°12'0 0.0
2017-Oct-15 02:30N 34°41' E 135°12'0 0.0
2017-Oct-15 02:01N 34°41' E 135°12'0 0.0
2017-Oct-15 01:31N 34°41' E 135°12'0 0.0
2017-Oct-15 01:01N 34°41' E 135°12'1 1.0
2017-Oct-15 00:30N 34°41' E 135°13'0 0.0
2017-Oct-15 00:01N 34°41' E 135°13'0 0.0
2017-Oct-14 23:30N 34°41' E 135°13'3 5.4
2017-Oct-14 23:00N 34°39' E 135°15'1 1.7
2017-Oct-14 22:30N 34°39' E 135°15'0 0.0
2017-Oct-14 22:01N 34°39' E 135°15'0 0.0
2017-Oct-14 21:30N 34°39' E 135°15'0 0.0
2017-Oct-14 21:00N 34°39' E 135°15'0 0.1
2017-Oct-14 20:31N 34°39' E 135°15'0 0.1
2017-Oct-14 20:01N 34°39' E 135°15'0 0.0
2017-Oct-14 19:31N 34°39' E 135°15'0 0.0
2017-Oct-14 19:01N 34°39' E 135°15'0 0.0
2017-Oct-14 18:30N 34°39' E 135°15'0 0.1
2017-Oct-14 18:01N 34°39' E 135°15'0 0.0
2017-Oct-14 17:30N 34°39' E 135°15'0 0.1
2017-Oct-14 17:00N 34°39' E 135°15'0 0.0
2017-Oct-14 16:31N 34°39' E 135°15'0 0.0
2017-Oct-14 16:00N 34°39' E 135°15'0 0.1
2017-Oct-14 15:30N 34°39' E 135°15'0 0.0
2017-Oct-14 15:01N 34°39' E 135°15'0 0.0
2017-Oct-14 14:31N 34°39' E 135°15'0 0.1
2017-Oct-14 14:01N 34°39' E 135°15'2 3.8
2017-Oct-14 13:31N 34°37' E 135°13'713.1
2017-Oct-14 13:01N 34°35' E 135°06'  
2017-Oct-12 04:17N 34°38' E 134°59'515.3
2017-Oct-12 03:57N 34°36' E 135°05'613.3
2017-Oct-12 03:30N 34°37' E 135°12'510.0
2017-Oct-12 03:00N 34°41' E 135°17'0 0.2
2017-Oct-12 02:30N 34°41' E 135°17'0 0.5
2017-Oct-12 02:00N 34°41' E 135°16'0 0.3
2017-Oct-12 01:30N 34°41' E 135°16'0 0.0
2017-Oct-12 01:00N 34°41' E 135°16'1 2.6
2017-Oct-12 00:29N 34°40' E 135°15'1 1.3
2017-Oct-12 00:00N 34°39' E 135°15'0 0.9
2017-Oct-11 23:30N 34°39' E 135°15'0 0.1
2017-Oct-11 23:00N 34°39' E 135°15'0 0.0
2017-Oct-11 22:30N 34°39' E 135°15'0 0.1
2017-Oct-11 22:00N 34°39' E 135°15'0 0.1
2017-Oct-11 21:30N 34°39' E 135°15'0 0.0
2017-Oct-11 21:00N 34°39' E 135°15'0 0.0
2017-Oct-11 20:30N 34°39' E 135°15'0 0.0
2017-Oct-11 20:00N 34°39' E 135°15'0 0.0
2017-Oct-11 19:30N 34°39' E 135°15'0 0.0
2017-Oct-11 19:00N 34°39' E 135°15'0 0.0
2017-Oct-11 18:30N 34°39' E 135°15'0 0.0
2017-Oct-11 17:59N 34°39' E 135°15'0 0.1
2017-Oct-11 17:30N 34°39' E 135°15'1 2.6
2017-Oct-11 17:00N 34°38' E 135°14'2 0.1
2017-Oct-11 00:00N 34°40' E 135°15'3 7.0
2017-Oct-10 23:30N 34°38' E 135°11'2 4.8
2017-Oct-10 23:00N 34°40' E 135°11'0 0.0
2017-Oct-10 22:30N 34°40' E 135°11'0 0.0
2017-Oct-10 22:00N 34°40' E 135°11'0 0.0
2017-Oct-10 21:30N 34°40' E 135°11'0 0.0
2017-Oct-10 21:00N 34°40' E 135°11'0 0.0
2017-Oct-10 20:30N 34°40' E 135°11'0 0.0
2017-Oct-10 20:00N 34°40' E 135°11'0 0.0
2017-Oct-10 19:30N 34°40' E 135°11'0 0.0
2017-Oct-10 19:00N 34°40' E 135°11'0 0.0
2017-Oct-10 18:30N 34°40' E 135°11'0 0.0
2017-Oct-10 18:00N 34°40' E 135°11'0 0.0
2017-Oct-10 17:30N 34°40' E 135°11'0 0.0
2017-Oct-10 17:00N 34°40' E 135°11'0 0.0
2017-Oct-10 16:30N 34°40' E 135°11'0 0.0
2017-Oct-10 16:00N 34°40' E 135°11'0 0.0
2017-Oct-10 15:30N 34°40' E 135°11'0 0.0
2017-Oct-10 15:00N 34°40' E 135°11'0 0.0
2017-Oct-10 14:00N 34°40' E 135°11'0 0.0
2017-Oct-10 13:30N 34°40' E 135°11'0 0.0
2017-Oct-10 13:00N 34°40' E 135°11'0 0.0
2017-Oct-10 12:30N 34°40' E 135°11'0 0.0
2017-Oct-10 12:00N 34°40' E 135°11'0 0.0
2017-Oct-10 11:30N 34°40' E 135°11'0 0.0
2017-Oct-10 11:00N 34°40' E 135°11'0 0.0
2017-Oct-10 10:30N 34°40' E 135°11'0 0.0
2017-Oct-10 10:00N 34°40' E 135°11'0 0.0
2017-Oct-10 09:30N 34°40' E 135°11'0 0.0
2017-Oct-10 09:00N 34°40' E 135°11'0 0.0
2017-Oct-10 08:30N 34°40' E 135°11'0 0.0
2017-Oct-10 08:00N 34°40' E 135°11'0 0.0
2017-Oct-10 07:30N 34°40' E 135°11'0 0.0
2017-Oct-10 07:00N 34°40' E 135°11'0 0.0
2017-Oct-10 06:30N 34°40' E 135°11'0 0.0
2017-Oct-10 06:00N 34°40' E 135°11'0 0.0
2017-Oct-10 05:30N 34°40' E 135°11'0 0.0
2017-Oct-10 05:00N 34°40' E 135°11'0 0.0
2017-Oct-10 04:30N 34°40' E 135°11'0 0.0
2017-Oct-10 04:00N 34°40' E 135°11'0 0.0
2017-Oct-10 03:30N 34°40' E 135°11'0 0.0
2017-Oct-10 03:00N 34°40' E 135°11'0 0.0
2017-Oct-10 02:30N 34°40' E 135°11'0 0.0
2017-Oct-10 02:00N 34°40' E 135°11'0 0.0
2017-Oct-10 01:30N 34°40' E 135°11'0 0.0
2017-Oct-10 01:00N 34°40' E 135°11'0 0.0
2017-Oct-10 00:30N 34°40' E 135°11'0 0.0
2017-Oct-10 00:00N 34°40' E 135°11'0 0.0
2017-Oct-09 23:30N 34°40' E 135°11'0 0.0
2017-Oct-09 23:00N 34°40' E 135°11'0 0.0
2017-Oct-09 22:30N 34°40' E 135°11'0 0.0
2017-Oct-09 22:00N 34°40' E 135°11'0 0.0
2017-Oct-09 21:30N 34°40' E 135°11'0 0.0
2017-Oct-09 21:00N 34°40' E 135°11'0 0.0
2017-Oct-09 20:30N 34°40' E 135°11'0 0.0
2017-Oct-09 20:00N 34°40' E 135°11'0 0.0
2017-Oct-09 19:30N 34°40' E 135°11'0 0.0
2017-Oct-09 19:00N 34°40' E 135°11'0 0.0
2017-Oct-09 18:30N 34°40' E 135°11'0 0.0
2017-Oct-09 18:00N 34°40' E 135°11'0 0.0
2017-Oct-09 17:30N 34°40' E 135°11'0 0.0
2017-Oct-09 17:00N 34°40' E 135°11'0 0.0
2017-Oct-09 16:30N 34°40' E 135°11'0 0.0
2017-Oct-09 16:00N 34°40' E 135°11'0 0.0
2017-Oct-09 15:30N 34°40' E 135°11'0 0.0
2017-Oct-09 15:00N 34°40' E 135°11'0 0.0
2017-Oct-09 14:30N 34°40' E 135°11'0 0.0
2017-Oct-09 14:00N 34°40' E 135°11'0 0.0
2017-Oct-09 13:30N 34°40' E 135°11'0 0.0
2017-Oct-09 13:00N 34°40' E 135°11'0 0.0
2017-Oct-09 12:30N 34°40' E 135°11'0 0.0
2017-Oct-09 12:00N 34°40' E 135°11'0 0.0
2017-Oct-09 11:30N 34°40' E 135°11'0 0.0
2017-Oct-09 11:00N 34°40' E 135°11'0 0.0
2017-Oct-09 10:30N 34°40' E 135°11'0 0.0
2017-Oct-09 10:00N 34°40' E 135°11'0 0.0
2017-Oct-09 09:30N 34°40' E 135°11'0 0.0
2017-Oct-09 09:00N 34°40' E 135°11'0 0.0
2017-Oct-09 08:30N 34°40' E 135°11'0 0.0
2017-Oct-09 08:00N 34°40' E 135°11'0 0.0
2017-Oct-09 07:30N 34°40' E 135°11'0 0.0
2017-Oct-09 07:00N 34°40' E 135°11'0 0.0
2017-Oct-09 06:30N 34°40' E 135°11'0 0.0
2017-Oct-09 06:00N 34°40' E 135°11'0 0.0
2017-Oct-09 05:30N 34°40' E 135°11'0 0.0
2017-Oct-09 05:00N 34°40' E 135°11'0 0.0
2017-Oct-09 04:30N 34°40' E 135°11'0 0.0
2017-Oct-09 04:00N 34°40' E 135°11'0 0.0
2017-Oct-09 03:30N 34°40' E 135°11'0 0.0
2017-Oct-09 03:00N 34°40' E 135°11'0 0.0
2017-Oct-09 02:30N 34°40' E 135°11'0 0.0
2017-Oct-09 02:00N 34°40' E 135°11'0 0.0
2017-Oct-09 01:30N 34°40' E 135°11'0 0.0
2017-Oct-09 01:00N 34°40' E 135°11'0 0.0
2017-Oct-09 00:30N 34°40' E 135°11'0 0.0
2017-Oct-09 00:00N 34°40' E 135°11'0 0.0
2017-Oct-08 23:30N 34°40' E 135°11'0 0.0
2017-Oct-08 23:00N 34°40' E 135°11'0 0.0
2017-Oct-08 22:30N 34°40' E 135°11'0 0.0
2017-Oct-08 22:00N 34°40' E 135°11'0 0.0
2017-Oct-08 21:30N 34°40' E 135°11'0 0.0
2017-Oct-08 21:00N 34°40' E 135°11'0 0.0
2017-Oct-08 20:30N 34°40' E 135°11'0 0.0
2017-Oct-08 20:00N 34°40' E 135°11'0 0.0
2017-Oct-08 19:30N 34°40' E 135°11'0 0.0
2017-Oct-08 19:00N 34°40' E 135°11'0 0.0
2017-Oct-08 18:30N 34°40' E 135°11'0 0.0
2017-Oct-08 18:00N 34°40' E 135°11'0 0.0
2017-Oct-08 17:30N 34°40' E 135°11'0 0.0
2017-Oct-08 17:00N 34°40' E 135°11'0 0.0
2017-Oct-08 16:30N 34°40' E 135°11'0 0.0
2017-Oct-08 16:00N 34°40' E 135°11'0 0.0
2017-Oct-08 15:30N 34°40' E 135°11'0 0.0
2017-Oct-08 15:00N 34°40' E 135°11'0 0.0
2017-Oct-08 14:30N 34°40' E 135°11'0 0.0
2017-Oct-08 14:00N 34°40' E 135°11'0 0.0
2017-Oct-08 13:30N 34°40' E 135°11'0 0.0
2017-Oct-08 13:00N 34°40' E 135°11'0 0.0
2017-Oct-08 12:30N 34°40' E 135°11'0 0.0
2017-Oct-08 12:00N 34°40' E 135°11'0 0.0
2017-Oct-08 11:30N 34°40' E 135°11'0 0.0
2017-Oct-08 11:00N 34°40' E 135°11'0 0.0
2017-Oct-08 10:30N 34°40' E 135°11'0 0.0
2017-Oct-08 10:00N 34°40' E 135°11'0 0.0
2017-Oct-08 09:30N 34°40' E 135°11'  

Dump ship's entire track history